Abbott, NM

11:18 PM MDT on September 21, 2014 (GMT -0600)
Raton Municipal-Crews | Change Station
CLOSE
Current Station
Airport
Location: Raton,
Elevation: 6352 ft
Nearby Weather Stations
Active Advisory: Areal Flood Advisory

Elev 6352 ft 36.74 °N, 104.50 °W | Updated 25 minutes ago

Overcast
Overcast
60 °F
Feels Like 60 °F
N
4
Wind Variable Wind from West

Today
High -- | Low -- °F
--% Chance of Precip.
Yesterday
High -- | Low -- °F
Precip. -- in
6:44 AM 6:55 PM
Waning Crescent, 4% visible
Pressure 30.18 in
Visibility 10.0 miles
Clouds Few 2300 ft
Overcast 4000 ft
Dew Point 57 °F
Humidity 90%
Rainfall 0.35 in
Snow Depth 0 in , 0 in , 0 in
UV 0 out of 12
Pollen 4.60 out of 12
Air Quality Not available.
Flu Activity Not available.
METAR KRTN 220453Z AUTO 27003KT 10SM -RA FEW023 OVC040 16/14 A3041 RMK AO2 LTG DSNT SW SLP218 P0003 T01560139

More Conditions Fewer Conditions

Pressure 30.18 in
Visibility 10.0 miles
Clouds Few 2300 ft
Overcast 4000 ft
Dew Point 57 °F
Humidity 90%
Rainfall 0.35 in
Snow Depth 0 in , 0 in , 0 in
UV 0 out of 12
Pollen 4.60 out of 12
Air Quality Not available.
Flu Activity Not available.
METAR KRTN 220453Z AUTO 27003KT 10SM -RA FEW023 OVC040 16/14 A3041 RMK AO2 LTG DSNT SW SLP218 P0003 T01560139

More Conditions Fewer Conditions

Nowcast | as of 9:58 PM MDT on September 21, 2014

Through 12 midnight...scattered showers will continue to develop and move slowly across much of northeast New Mexico. Activity will focus between Las Vegas...Raton and Bueyeros. Expect moderate rain with brief heavy downpours to produce rainfall amounts averaging less than one half inch. A rumble of thunder or two can not be ruled out. Motorists should exercise caution and be prepared for water on roads. Locations that may be impacted include Las Vegas...Wagon Mound...Springer...Raton...Cimarron...Tucumcari...Newkirk... Bueyeros...Gladstone and Capulin.

×

10-Day Weather Forecast

Almanac

Astronomy

Sep. 21, 2014 Rise Set
Actual Time 6:44 AM MDT 6:55 PM MDT
Civil Twilight 6:18 AM MDT 7:21 PM MDT
Nautical Twilight 5:48 AM MDT 7:51 PM MDT
Astronomical Twilight 5:18 AM MDT 8:21 PM MDT
Moon 4:23 AM MDT (9/21) 5:30 PM MDT (9/21)
Length of Visible Light 13h 02m
Length of Day
12h 11m
Tomorrow will be 2m 16s shorter.
Waning Crescent, 4% of the Moon is Illuminated
Sep 22
Waning Crescent
Sep 24
New
Oct 1
First Quarter
Oct 8
Full
Oct 15
Last Quarter

Yesterday's Extremes

State Highs State Lows

Community

WunderPhotos

Upload Photos

1,755,391 photos uploaded!

Nearby

Snow Depth

Station Depth Elevation
Santa Fe 0 in 11445 ft
Signal Peak 0 in 8360 ft
Red River Pass #2 0 in 9850 ft
Bateman 0 in 9300 ft
McKnight Cabin 0 in 9240 ft

Earthquake Activity

City Distance Mag. Time & Date
No recent earthquake activity has been reported nearby.
Minimum magnitude displayed is 2.5.

Coastal Water Temperatures

Place Temperature
No Stations Reporting

Nearby Weather Stations